createdAt,value
2018-09-09T00:00:09.916Z,5.85
2018-09-09T00:02:38.155Z,6.47
2018-09-09T00:05:05.577Z,6.28
2018-09-09T00:07:33.056Z,32.00
2018-09-09T00:10:00.540Z,6.47
2018-09-09T00:12:27.976Z,11.60
2018-09-09T00:14:55.398Z,7.30
2018-09-09T00:17:22.835Z,7.10
2018-09-09T00:19:50.293Z,9.80
2018-09-09T00:22:17.749Z,7.47
2018-09-09T00:24:45.223Z,6.53
2018-09-09T00:27:12.688Z,5.03
2018-09-09T00:29:40.363Z,7.43
2018-09-09T00:32:07.759Z,5.18
2018-09-09T00:34:35.208Z,6.72
2018-09-09T00:37:02.649Z,8.10
2018-09-09T00:39:30.068Z,5.80
2018-09-09T00:41:57.519Z,5.43
2018-09-09T00:44:25.410Z,5.62
2018-09-09T00:46:52.850Z,5.85
2018-09-09T00:49:20.339Z,7.15
2018-09-09T00:54:39.967Z,9.10
2018-09-09T00:57:07.391Z,6.05
2018-09-09T00:59:34.872Z,7.53
2018-09-09T01:02:02.331Z,6.55
2018-09-09T01:04:29.763Z,6.20
2018-09-09T01:06:57.222Z,5.87
2018-09-09T01:09:24.678Z,7.30
2018-09-09T01:11:52.131Z,6.05
2018-09-09T01:14:19.541Z,6.35
2018-09-09T01:16:47.020Z,5.95
2018-09-09T01:19:14.459Z,5.18
2018-09-09T01:21:41.974Z,5.50
2018-09-09T01:24:09.373Z,7.72
2018-09-09T01:26:36.795Z,5.80
2018-09-09T01:29:04.281Z,6.25
2018-09-09T01:31:31.795Z,5.53
2018-09-09T01:33:59.222Z,5.68
2018-09-09T01:36:26.728Z,5.65
2018-09-09T01:38:54.195Z,6.00
2018-09-09T01:41:21.637Z,4.68
2018-09-09T01:43:49.084Z,5.80
2018-09-09T01:46:16.532Z,5.57
2018-09-09T01:48:43.983Z,6.25
2018-09-09T01:51:11.486Z,4.35
2018-09-09T01:53:38.926Z,5.85
2018-09-09T01:56:06.355Z,4.65
2018-09-09T01:58:34.221Z,5.28
2018-09-09T02:01:01.677Z,6.30
2018-09-09T02:03:29.089Z,6.05
2018-09-09T02:05:56.596Z,6.15
2018-09-09T02:08:29.052Z,6.62
2018-09-09T02:10:56.447Z,6.22
2018-09-09T02:13:24.018Z,6.57
2018-09-09T02:15:51.447Z,6.20
2018-09-09T02:18:18.902Z,4.85
2018-09-09T02:20:46.454Z,5.45
2018-09-09T02:23:13.946Z,4.68
2018-09-09T02:25:41.401Z,5.03
2018-09-09T02:28:08.847Z,5.07
2018-09-09T02:30:36.290Z,6.95
2018-09-09T02:33:03.759Z,5.53
2018-09-09T02:35:31.247Z,4.47
2018-09-09T02:37:58.664Z,5.25
2018-09-09T02:40:26.187Z,6.07
2018-09-09T02:42:53.630Z,5.40
2018-09-09T02:45:21.103Z,4.80
2018-09-09T02:47:48.564Z,5.30
2018-09-09T02:50:16.026Z,5.60
2018-09-09T02:52:43.522Z,4.80
2018-09-09T02:55:10.952Z,5.00
2018-09-09T02:57:38.429Z,4.82
2018-09-09T03:00:05.818Z,4.60
2018-09-09T03:02:33.312Z,6.12
2018-09-09T03:05:00.733Z,5.65
2018-09-09T03:07:28.164Z,5.45
2018-09-09T03:09:55.610Z,5.95
2018-09-09T03:12:23.068Z,4.30
2018-09-09T03:14:50.521Z,5.95
2018-09-09T03:17:17.952Z,4.87
2018-09-09T03:19:45.386Z,5.85
2018-09-09T03:22:12.816Z,6.03
2018-09-09T03:24:40.551Z,5.32
2018-09-09T03:27:08.042Z,5.00
2018-09-09T03:29:35.468Z,5.07
2018-09-09T03:32:02.895Z,4.70
2018-09-09T03:34:30.399Z,5.78
2018-09-09T03:36:57.831Z,3.83
2018-09-09T03:39:25.228Z,5.60
2018-09-09T03:41:52.716Z,5.47
2018-09-09T03:44:20.118Z,5.32
2018-09-09T03:46:47.598Z,4.57
2018-09-09T03:49:15.041Z,4.75
2018-09-09T03:51:42.457Z,5.60
2018-09-09T03:54:09.907Z,5.82
2018-09-09T03:56:37.348Z,4.80
2018-09-09T03:59:04.840Z,5.00
2018-09-09T04:01:32.318Z,5.18
2018-09-09T04:03:59.788Z,4.95
2018-09-09T04:06:27.231Z,4.95
2018-09-09T04:08:54.782Z,4.65
2018-09-09T04:11:22.182Z,6.03
2018-09-09T04:13:49.632Z,4.75
2018-09-09T04:16:17.064Z,4.30
2018-09-09T04:18:44.505Z,3.65
2018-09-09T04:21:11.973Z,4.78
2018-09-09T04:23:39.412Z,5.75
2018-09-09T04:26:06.852Z,6.03
2018-09-09T04:28:34.257Z,5.07
2018-09-09T04:31:01.814Z,5.15
2018-09-09T04:33:29.247Z,4.62
2018-09-09T04:35:56.717Z,5.40
2018-09-09T04:38:24.218Z,5.20
2018-09-09T04:40:52.631Z,4.43
2018-09-09T04:43:20.170Z,4.50
2018-09-09T04:45:47.728Z,4.95
2018-09-09T04:48:15.171Z,5.75
2018-09-09T04:50:42.556Z,4.80
2018-09-09T04:53:10.066Z,4.78
2018-09-09T04:55:37.541Z,5.15
2018-09-09T04:58:05.013Z,5.43
2018-09-09T05:00:31.782Z,4.28
2018-09-09T05:02:59.186Z,5.20
2018-09-09T05:05:26.649Z,3.45
2018-09-09T05:07:54.060Z,4.60
2018-09-09T05:10:21.504Z,4.80
2018-09-09T05:12:48.963Z,4.18
2018-09-09T05:15:16.413Z,4.90
2018-09-09T05:17:43.945Z,4.07
2018-09-09T05:20:11.455Z,4.57
2018-09-09T05:22:38.921Z,5.03
2018-09-09T05:25:06.397Z,4.65
2018-09-09T05:27:34.244Z,4.40
2018-09-09T05:30:01.697Z,4.80
2018-09-09T05:32:29.134Z,5.40
2018-09-09T05:34:56.780Z,5.18
2018-09-09T05:37:24.217Z,4.87
2018-09-09T05:39:51.689Z,4.40
2018-09-09T05:42:19.223Z,5.87
2018-09-09T05:44:46.766Z,4.90
2018-09-09T05:47:14.207Z,4.60
2018-09-09T05:49:41.671Z,5.62
2018-09-09T05:52:09.097Z,5.68
2018-09-09T05:54:36.498Z,4.12
2018-09-09T05:57:03.997Z,5.05
2018-09-09T05:59:31.496Z,5.07
2018-09-09T06:01:58.931Z,4.45
2018-09-09T06:04:26.329Z,3.92
2018-09-09T06:06:53.763Z,5.55
2018-09-09T06:09:21.193Z,4.30
2018-09-09T06:11:48.640Z,4.90
2018-09-09T06:14:16.118Z,5.95
2018-09-09T06:16:43.613Z,5.40
2018-09-09T06:19:11.052Z,5.12
2018-09-09T06:21:38.486Z,5.55
2018-09-09T06:24:05.996Z,4.90
2018-09-09T06:26:33.461Z,4.60
2018-09-09T06:29:00.977Z,6.90
2018-09-09T06:31:28.428Z,5.12
2018-09-09T06:33:55.955Z,5.70
2018-09-09T06:36:23.697Z,5.03
2018-09-09T06:38:51.166Z,6.60
2018-09-09T06:41:18.597Z,5.93
2018-09-09T06:43:46.024Z,6.55
2018-09-09T06:46:13.587Z,6.05
2018-09-09T06:48:41.023Z,5.90
2018-09-09T06:51:08.445Z,5.78
2018-09-09T06:53:35.874Z,6.45
2018-09-09T06:56:03.388Z,6.32
2018-09-09T06:58:30.928Z,6.60
2018-09-09T07:00:58.417Z,7.22
2018-09-09T07:05:52.846Z,7.15
2018-09-09T07:08:20.322Z,7.45
2018-09-09T07:10:47.779Z,6.80
2018-09-09T07:40:12.320Z,7.45
2018-09-09T07:42:39.764Z,7.90
2018-09-09T07:45:07.202Z,10.20
2018-09-09T07:47:34.658Z,9.55
2018-09-09T07:54:56.210Z,12.55
2018-09-09T08:12:06.282Z,11.37
2018-09-09T08:14:33.728Z,12.02
2018-09-09T08:26:49.390Z,11.55
2018-09-09T08:29:16.838Z,10.13
2018-09-09T08:31:44.339Z,10.55
2018-09-09T08:39:05.835Z,10.48
2018-09-09T09:18:20.913Z,7.15
2018-09-09T09:20:48.480Z,7.13
2018-09-09T09:25:42.989Z,4.85
2018-09-09T09:28:10.431Z,6.57
2018-09-09T09:30:37.894Z,6.63
2018-09-09T09:33:05.382Z,6.40
2018-09-09T09:35:32.873Z,5.35
2018-09-09T09:40:27.336Z,7.93
2018-09-09T09:42:54.753Z,10.80
2018-09-09T09:47:49.616Z,7.25
2018-09-09T09:52:44.046Z,6.50
2018-09-09T09:55:11.531Z,7.80
2018-09-09T09:57:38.986Z,7.87
2018-09-09T10:00:07.304Z,8.00
2018-09-09T10:02:34.826Z,7.97
2018-09-09T10:05:02.304Z,6.40
2018-09-09T10:07:29.775Z,5.75
2018-09-09T10:09:57.214Z,7.10
2018-09-09T10:12:24.691Z,7.05
2018-09-09T10:14:52.136Z,6.78
2018-09-09T10:17:19.558Z,6.80
2018-09-09T10:19:47.045Z,6.90
2018-09-09T10:22:14.528Z,6.72
2018-09-09T10:24:41.978Z,7.43
2018-09-09T10:27:09.374Z,5.95
2018-09-09T10:29:36.867Z,6.80
2018-09-09T10:32:04.349Z,6.95
2018-09-09T10:34:31.901Z,6.90
2018-09-09T10:39:26.436Z,5.90
2018-09-09T10:41:53.875Z,6.18
2018-09-09T10:44:21.350Z,5.82
2018-09-09T10:46:49.112Z,7.00
2018-09-09T10:49:16.581Z,7.62
2018-09-09T10:54:11.003Z,7.13
2018-09-09T10:56:38.427Z,8.57
2018-09-09T10:59:05.839Z,8.32
2018-09-09T11:01:33.328Z,8.70
2018-09-09T11:04:01.700Z,8.32
2018-09-09T11:06:29.206Z,7.80
2018-09-09T11:08:56.661Z,6.80
2018-09-09T11:11:24.063Z,8.77
2018-09-09T11:13:51.507Z,6.40
2018-09-09T11:16:19.047Z,8.00
2018-09-09T11:18:46.494Z,6.72
2018-09-09T11:21:13.957Z,6.47
2018-09-09T11:23:41.410Z,5.82
2018-09-09T11:26:08.852Z,6.95
2018-09-09T11:28:37.465Z,7.00
2018-09-09T11:31:04.926Z,8.70
2018-09-09T11:33:32.388Z,7.90
2018-09-09T11:35:59.829Z,8.20
2018-09-09T11:38:27.226Z,10.50
2018-09-09T11:40:54.676Z,7.70
2018-09-09T11:43:22.086Z,7.03
2018-09-09T11:45:49.563Z,7.22
2018-09-09T11:48:17.099Z,8.00
2018-09-09T11:50:44.569Z,7.82
2018-09-09T11:53:12.212Z,7.55
2018-09-09T11:55:39.614Z,7.60
2018-09-09T11:58:07.090Z,8.77
2018-09-09T12:00:34.705Z,8.70
2018-09-09T12:03:02.166Z,8.68
2018-09-09T12:05:29.610Z,9.63
2018-09-09T12:07:57.039Z,7.37
2018-09-09T12:10:24.524Z,8.75
2018-09-09T12:15:18.966Z,9.85
2018-09-09T12:17:46.449Z,9.18
2018-09-09T12:20:13.954Z,10.07
2018-09-09T12:22:41.391Z,10.50
2018-09-09T12:25:08.812Z,8.15
2018-09-09T12:27:36.283Z,11.32
2018-09-09T12:30:03.734Z,9.70
2018-09-09T12:32:31.242Z,8.88
2018-09-09T12:34:58.698Z,11.20
2018-09-09T12:37:26.586Z,10.73
2018-09-09T12:39:54.002Z,10.77
2018-09-09T12:42:21.492Z,9.48
2018-09-09T12:47:44.505Z,6.22
2018-09-09T12:50:11.940Z,16.90
2018-09-09T12:52:39.483Z,12.75
2018-09-09T12:55:06.920Z,16.45
2018-09-09T12:57:34.431Z,15.85
2018-09-09T13:00:01.871Z,12.63
2018-09-09T13:02:29.266Z,12.57
2018-09-09T13:04:56.726Z,9.77
2018-09-09T13:07:24.241Z,12.05
2018-09-09T13:09:51.548Z,9.63
2018-09-09T13:12:19.009Z,12.05
2018-09-09T13:14:46.454Z,10.60
2018-09-09T13:17:14.009Z,11.70
2018-09-09T13:19:41.424Z,11.23
2018-09-09T13:22:09.632Z,10.18
2018-09-09T13:24:37.027Z,13.52
2018-09-09T13:27:04.519Z,12.67
2018-09-09T13:29:31.967Z,15.55
2018-09-09T13:31:59.418Z,14.18
2018-09-09T13:34:26.865Z,14.05
2018-09-09T13:36:54.349Z,13.20
2018-09-09T13:39:21.807Z,11.55
2018-09-09T13:41:49.239Z,13.02
2018-09-09T13:44:16.777Z,13.50
2018-09-09T13:46:44.291Z,9.90
2018-09-09T13:49:11.734Z,9.25
2018-09-09T13:51:39.240Z,9.82
2018-09-09T13:54:06.745Z,11.40
2018-09-09T13:56:34.185Z,10.00
2018-09-09T13:59:01.639Z,12.70
2018-09-09T14:01:29.158Z,12.82
2018-09-09T14:03:56.741Z,11.63
2018-09-09T14:06:24.230Z,14.87
2018-09-09T14:08:51.837Z,13.48
2018-09-09T14:11:20.069Z,10.90
2018-09-09T14:13:47.529Z,12.00
2018-09-09T14:16:15.002Z,9.57
2018-09-09T14:18:42.440Z,10.00
2018-09-09T14:21:09.997Z,11.50
2018-09-09T14:26:04.504Z,13.30
2018-09-09T14:30:59.095Z,13.70
2018-09-09T14:33:26.614Z,9.45
2018-09-09T14:38:21.092Z,9.00
2018-09-09T14:40:48.549Z,7.18
2018-09-09T14:43:16.031Z,9.15
2018-09-09T14:45:43.537Z,9.82
2018-09-09T14:48:10.976Z,8.40
2018-09-09T14:50:38.455Z,11.00
2018-09-09T14:53:05.968Z,11.10
2018-09-09T14:55:33.360Z,8.70
2018-09-09T14:58:00.801Z,8.70
2018-09-09T15:00:28.391Z,9.43
2018-09-09T15:02:55.870Z,7.32
2018-09-09T15:05:24.118Z,8.23
2018-09-09T15:07:51.573Z,8.77
2018-09-09T15:10:19.166Z,10.43
2018-09-09T15:12:46.687Z,10.47
2018-09-09T15:15:14.183Z,9.57
2018-09-09T15:17:41.588Z,11.10
2018-09-09T15:20:09.007Z,9.83
2018-09-09T15:22:36.557Z,10.20
2018-09-09T15:25:03.928Z,6.97
2018-09-09T15:27:31.538Z,8.85
2018-09-09T15:29:59.020Z,10.53
2018-09-09T15:32:26.497Z,8.10
2018-09-09T15:34:53.927Z,8.80
2018-09-09T15:37:21.374Z,13.00
2018-09-09T15:39:48.877Z,10.32
2018-09-09T15:42:16.316Z,9.27
2018-09-09T15:44:43.761Z,9.48
2018-09-09T15:49:38.372Z,12.50
2018-09-09T15:52:05.906Z,9.30
2018-09-09T15:54:33.283Z,8.57
2018-09-09T15:57:00.725Z,7.28
2018-09-09T15:59:28.301Z,9.98
2018-09-09T16:01:55.872Z,7.50
2018-09-09T16:04:23.344Z,11.07
2018-09-09T16:06:50.812Z,10.43
2018-09-09T16:09:18.412Z,6.82
2018-09-09T16:11:45.905Z,9.45
2018-09-09T16:14:13.355Z,8.90
2018-09-09T16:16:41.179Z,9.27
2018-09-09T16:19:08.682Z,8.85
2018-09-09T16:21:36.096Z,8.93
2018-09-09T16:24:03.503Z,8.80
2018-09-09T16:26:30.918Z,8.90
2018-09-09T16:28:58.464Z,8.98
2018-09-09T16:31:26.069Z,8.57
2018-09-09T16:33:53.651Z,9.00
2018-09-09T16:36:21.168Z,9.18
2018-09-09T16:38:48.630Z,8.07
2018-09-09T16:41:16.094Z,8.60
2018-09-09T16:43:44.174Z,10.85
2018-09-09T16:46:11.611Z,10.37
2018-09-09T16:48:39.056Z,8.68
2018-09-09T16:51:06.474Z,9.27
2018-09-09T16:53:34.037Z,8.20
2018-09-09T16:56:01.512Z,8.82
2018-09-09T16:58:28.951Z,8.20
2018-09-09T17:00:56.404Z,6.65
2018-09-09T17:03:24.026Z,9.32
2018-09-09T17:05:51.503Z,8.70
2018-09-09T17:08:18.976Z,7.85
2018-09-09T17:10:46.403Z,5.65
2018-09-09T17:13:13.866Z,7.28
2018-09-09T17:15:41.295Z,7.32
2018-09-09T17:18:08.775Z,8.10
2018-09-09T17:20:36.220Z,7.70
2018-09-09T17:23:03.655Z,7.62
2018-09-09T17:25:31.108Z,7.62
2018-09-09T17:27:58.568Z,7.03
2018-09-09T17:30:26.094Z,7.90
2018-09-09T17:32:53.612Z,7.40
2018-09-09T17:35:21.302Z,6.40
2018-09-09T17:37:48.733Z,7.35
2018-09-09T17:40:16.270Z,6.57
2018-09-09T17:42:43.743Z,6.57
2018-09-09T17:45:11.176Z,6.95
2018-09-09T17:47:39.015Z,5.40
2018-09-09T17:50:06.540Z,6.95
2018-09-09T17:55:02.613Z,6.35
2018-09-09T17:57:30.069Z,6.07
2018-09-09T17:59:57.525Z,8.95
2018-09-09T18:02:25.036Z,6.12
2018-09-09T18:04:52.472Z,7.03
2018-09-09T18:07:19.953Z,6.75
2018-09-09T18:09:47.390Z,7.00
2018-09-09T18:12:14.885Z,7.78
2018-09-09T18:14:42.344Z,5.53
2018-09-09T18:17:09.739Z,4.55
2018-09-09T18:19:37.333Z,7.22
2018-09-09T18:22:05.070Z,5.85
2018-09-09T18:24:32.494Z,6.95
2018-09-09T18:26:59.933Z,6.45
2018-09-09T18:29:27.422Z,6.47
2018-09-09T18:31:54.908Z,7.93
2018-09-09T18:34:22.707Z,8.10
2018-09-09T18:36:50.123Z,8.95
2018-09-09T18:39:17.601Z,8.20
2018-09-09T18:41:46.023Z,8.63
2018-09-09T18:44:13.479Z,6.95
2018-09-09T18:46:40.936Z,7.32
2018-09-09T18:49:08.368Z,7.15
2018-09-09T18:51:35.977Z,5.87
2018-09-09T18:54:03.525Z,6.32
2018-09-09T18:56:31.607Z,11.85
2018-09-09T18:58:59.360Z,6.30
2018-09-09T19:01:27.042Z,7.30
2018-09-09T19:03:54.628Z,7.72
2018-09-09T19:06:22.196Z,6.22
2018-09-09T19:08:49.628Z,6.05
2018-09-09T19:11:17.237Z,7.93
2018-09-09T19:13:46.037Z,8.13
2018-09-09T19:16:13.743Z,7.68
2018-09-09T19:18:41.469Z,6.95
2018-09-09T19:21:08.994Z,7.90
2018-09-09T19:23:36.589Z,9.77
2018-09-09T19:26:04.585Z,7.00
2018-09-09T19:28:32.067Z,7.55
2018-09-09T19:30:59.536Z,7.00
2018-09-09T19:33:26.962Z,7.60
2018-09-09T19:35:54.406Z,6.93
2018-09-09T19:38:21.876Z,7.82
2018-09-09T19:40:49.318Z,7.28
2018-09-09T19:43:16.771Z,10.20
2018-09-09T19:45:44.205Z,9.80
2018-09-09T19:48:11.651Z,9.38
2018-09-09T19:50:39.063Z,8.73
2018-09-09T19:53:06.474Z,8.02
2018-09-09T19:55:33.925Z,10.45
2018-09-09T19:58:01.327Z,7.75
2018-09-09T20:00:28.785Z,9.45
2018-09-09T20:02:56.210Z,7.87
2018-09-09T20:05:23.718Z,8.43
2018-09-09T20:07:51.159Z,8.68
2018-09-09T20:10:18.614Z,8.60
2018-09-09T20:12:46.134Z,9.32
2018-09-09T20:15:13.628Z,8.60
2018-09-09T20:17:41.072Z,9.55
2018-09-09T20:20:08.561Z,7.62
2018-09-09T20:22:36.051Z,8.50
2018-09-09T20:25:03.465Z,7.68
2018-09-09T20:27:30.907Z,10.00
2018-09-09T20:29:58.377Z,10.82
2018-09-09T20:32:25.902Z,9.23
2018-09-09T20:34:53.371Z,10.50
2018-09-09T20:37:20.886Z,9.20
2018-09-09T20:39:48.405Z,9.05
2018-09-09T20:42:15.872Z,9.40
2018-09-09T20:44:43.338Z,14.27
2018-09-09T20:47:10.821Z,9.90
2018-09-09T20:49:38.312Z,8.45
2018-09-09T20:52:05.729Z,9.45
2018-09-09T20:54:33.155Z,9.05
2018-09-09T20:57:00.603Z,9.23
2018-09-09T20:59:28.067Z,9.95
2018-09-09T21:01:55.540Z,9.57
2018-09-09T21:04:23.015Z,7.72
2018-09-09T21:06:50.515Z,7.53
2018-09-09T21:09:17.987Z,7.60
2018-09-09T21:11:45.491Z,8.75
2018-09-09T21:14:12.904Z,8.25
2018-09-09T21:16:40.392Z,8.45
2018-09-09T21:19:07.750Z,7.95
2018-09-09T21:21:35.167Z,8.32
2018-09-09T21:24:04.215Z,9.00
2018-09-09T21:26:32.580Z,8.32
2018-09-09T21:29:00.077Z,8.95
2018-09-09T21:31:27.535Z,7.75
2018-09-09T21:33:54.972Z,9.35
2018-09-09T21:36:22.390Z,8.02
2018-09-09T21:38:49.935Z,9.25
2018-09-09T21:41:17.372Z,8.60
2018-09-09T21:43:44.939Z,7.97
2018-09-09T21:46:12.380Z,8.35
2018-09-09T21:48:39.769Z,7.50
2018-09-09T21:51:07.388Z,8.10
2018-09-09T21:53:34.803Z,8.60
2018-09-09T21:56:02.243Z,8.52
2018-09-09T21:58:29.662Z,8.95
2018-09-09T22:00:57.156Z,6.93
2018-09-09T22:03:24.603Z,7.78
2018-09-09T22:05:52.114Z,9.45
2018-09-09T22:08:19.556Z,8.40
2018-09-09T22:10:47.011Z,9.00
2018-09-09T22:13:14.485Z,9.15
2018-09-09T22:15:41.915Z,8.65
2018-09-09T22:18:10.210Z,6.82
2018-09-09T22:20:37.675Z,10.63
2018-09-09T22:23:05.102Z,6.93
2018-09-09T22:25:32.535Z,10.00
2018-09-09T22:27:59.997Z,7.70
2018-09-09T22:30:27.439Z,10.68
2018-09-09T22:32:54.883Z,6.93
2018-09-09T22:35:23.022Z,6.90
2018-09-09T22:37:50.512Z,7.15
2018-09-09T22:40:17.981Z,9.25
2018-09-09T22:42:45.452Z,6.65
2018-09-09T22:45:13.110Z,7.82
2018-09-09T22:47:40.632Z,7.47
2018-09-09T22:50:08.076Z,8.80
2018-09-09T22:52:35.512Z,7.10
2018-09-09T22:55:03.017Z,6.43
2018-09-09T22:57:30.493Z,7.25
2018-09-09T22:59:57.950Z,7.35
2018-09-09T23:02:25.339Z,8.50
2018-09-09T23:04:52.846Z,7.37
2018-09-09T23:07:20.447Z,8.25
2018-09-09T23:09:47.860Z,6.65
2018-09-09T23:12:15.839Z,8.20
2018-09-09T23:14:43.454Z,7.15
2018-09-09T23:17:10.860Z,6.55
2018-09-09T23:19:38.338Z,7.65
2018-09-09T23:22:05.814Z,7.53
2018-09-09T23:24:33.212Z,7.18
2018-09-09T23:27:00.693Z,7.80
2018-09-09T23:29:28.142Z,7.60
2018-09-09T23:31:55.617Z,7.12
2018-09-09T23:34:23.107Z,7.62
2018-09-09T23:36:50.809Z,7.10
2018-09-09T23:39:18.273Z,8.25
2018-09-09T23:41:46.471Z,7.65
2018-09-09T23:44:14.048Z,6.78
2018-09-09T23:46:41.506Z,9.18
2018-09-09T23:49:08.983Z,7.12
2018-09-09T23:51:36.431Z,7.18
2018-09-09T23:54:03.867Z,5.70
2018-09-09T23:56:31.319Z,8.70
2018-09-09T23:58:58.760Z,7.05
